createdAt,value
2018-02-13T00:01:29.279Z,1.90
2018-02-13T00:03:56.767Z,1.70
2018-02-13T00:06:25.013Z,1.90
2018-02-13T00:08:52.495Z,1.60
2018-02-13T00:11:20.783Z,1.70
2018-02-13T00:13:49.028Z,1.50
2018-02-13T00:16:16.512Z,1.70
2018-02-13T00:18:44.746Z,1.60
2018-02-13T00:21:12.234Z,1.60
2018-02-13T00:23:39.728Z,1.50
2018-02-13T00:26:07.207Z,1.80
2018-02-13T00:28:34.678Z,2.10
2018-02-13T00:31:02.165Z,1.80
2018-02-13T00:33:29.627Z,2.00
2018-02-13T00:35:57.893Z,2.00
2018-02-13T00:38:25.367Z,2.00
2018-02-13T00:40:53.610Z,2.00
2018-02-13T00:43:21.083Z,2.50
2018-02-13T00:45:48.564Z,2.30
2018-02-13T00:48:16.807Z,1.90
2018-02-13T00:50:44.282Z,2.10
2018-02-13T00:53:11.753Z,2.10
2018-02-13T00:55:39.996Z,2.10
2018-02-13T00:58:07.474Z,2.30
2018-02-13T01:00:34.949Z,2.30
2018-02-13T01:03:03.191Z,2.20
2018-02-13T01:05:30.662Z,2.00
2018-02-13T01:07:58.142Z,2.00
2018-02-13T01:10:26.375Z,1.90
2018-02-13T01:12:53.867Z,1.90
2018-02-13T01:15:21.331Z,1.80
2018-02-13T01:17:49.570Z,2.00
2018-02-13T01:20:17.044Z,1.70
2018-02-13T01:22:44.522Z,1.50
2018-02-13T01:25:12.754Z,1.60
2018-02-13T01:27:40.259Z,1.40
2018-02-13T01:30:08.494Z,1.50
2018-02-13T01:32:35.982Z,1.40
2018-02-13T01:35:03.446Z,1.30
2018-02-13T01:37:31.695Z,1.20
2018-02-13T01:39:59.172Z,1.10
2018-02-13T01:42:26.650Z,1.40
2018-02-13T01:44:54.118Z,1.00
2018-02-13T01:47:21.598Z,0.90
2018-02-13T01:49:49.067Z,1.20
2018-02-13T01:52:16.559Z,0.90
2018-02-13T01:54:44.032Z,1.00
2018-02-13T01:57:12.279Z,0.70
2018-02-13T01:59:39.746Z,0.90
2018-02-13T02:02:07.218Z,0.60
2018-02-13T02:04:35.495Z,0.70
2018-02-13T02:07:02.962Z,0.60
2018-02-13T02:09:31.193Z,0.40
2018-02-13T02:11:58.676Z,0.70
2018-02-13T02:14:26.154Z,0.60
2018-02-13T02:16:54.419Z,0.70
2018-02-13T02:19:22.657Z,0.50
2018-02-13T02:21:50.146Z,0.50
2018-02-13T02:24:17.622Z,0.50
2018-02-13T02:26:45.858Z,0.40
2018-02-13T02:29:13.334Z,0.50
2018-02-13T02:31:40.820Z,0.40
2018-02-13T02:34:09.066Z,0.20
2018-02-13T02:36:36.546Z,0.40
2018-02-13T02:39:04.791Z,0.30
2018-02-13T02:41:32.278Z,0.10
2018-02-13T02:44:00.515Z,0.30
2018-02-13T02:46:27.992Z,0.10
2018-02-13T02:48:55.479Z,0.30
2018-02-13T02:51:22.970Z,0.10
2018-02-13T02:53:50.455Z,-0.10
2018-02-13T02:56:17.929Z,0.20
2018-02-13T02:58:45.403Z,0.20
2018-02-13T03:01:13.639Z,0.20
2018-02-13T03:03:41.120Z,0.20
2018-02-13T03:06:09.366Z,0.10
2018-02-13T03:08:36.842Z,-0.10
2018-02-13T03:11:04.328Z,0.20
2018-02-13T03:13:32.573Z,0.20
2018-02-13T03:16:00.056Z,0.20
2018-02-13T03:18:27.526Z,0.20
2018-02-13T03:20:55.788Z,0.20
2018-02-13T03:23:23.263Z,0.20
2018-02-13T03:25:51.505Z,0.20
2018-02-13T03:28:18.975Z,0.30
2018-02-13T03:30:46.453Z,0.20
2018-02-13T03:33:14.704Z,0.00
2018-02-13T03:35:42.178Z,-0.20
2018-02-13T03:38:10.443Z,-0.20
2018-02-13T03:40:37.916Z,-0.20
2018-02-13T03:43:06.167Z,0.00
2018-02-13T03:45:33.647Z,-0.10
2018-02-13T03:48:01.127Z,-0.30
2018-02-13T03:50:28.595Z,-0.40
2018-02-13T03:52:56.091Z,-0.10
2018-02-13T03:55:23.574Z,-0.30
2018-02-13T03:57:51.055Z,-0.50
2018-02-13T04:00:19.299Z,-0.30
2018-02-13T04:02:46.790Z,-0.30
2018-02-13T04:05:15.030Z,-0.60
2018-02-13T04:07:42.511Z,-0.30
2018-02-13T04:10:10.767Z,-0.30
2018-02-13T04:12:38.248Z,-0.60
2018-02-13T04:15:06.532Z,-0.50
2018-02-13T04:17:34.785Z,-0.80
2018-02-13T04:20:02.268Z,-0.70
2018-02-13T04:22:30.518Z,-0.50
2018-02-13T04:24:58.014Z,-0.90
2018-02-13T04:27:25.503Z,-0.50
2018-02-13T04:29:52.983Z,-0.70
2018-02-13T04:32:20.466Z,-0.40
2018-02-13T04:34:48.710Z,-0.90
2018-02-13T04:37:16.198Z,-0.80
2018-02-13T04:39:44.446Z,-1.00
2018-02-13T04:42:11.960Z,-0.90
2018-02-13T04:44:39.441Z,-0.90
2018-02-13T04:47:06.922Z,-0.90
2018-02-13T04:49:34.398Z,-0.40
2018-02-13T04:52:01.895Z,-0.60
2018-02-13T04:54:29.371Z,-0.40
2018-02-13T04:56:56.848Z,-0.60
2018-02-13T04:59:24.328Z,-0.70
2018-02-13T05:01:51.807Z,-0.40
2018-02-13T05:04:20.067Z,-0.70
2018-02-13T05:06:47.544Z,-0.70
2018-02-13T05:09:15.808Z,-0.50
2018-02-13T05:11:43.272Z,-0.50
2018-02-13T05:14:11.528Z,-0.50
2018-02-13T05:16:39.007Z,-0.50
2018-02-13T05:19:07.264Z,-0.50
2018-02-13T05:21:34.734Z,-0.50
2018-02-13T05:24:02.989Z,-0.80
2018-02-13T05:26:30.459Z,-0.60
2018-02-13T05:28:59.459Z,-0.80
2018-02-13T05:31:26.954Z,-0.70
2018-02-13T05:33:54.462Z,-1.10
2018-02-13T05:36:21.936Z,-1.00
2018-02-13T05:38:50.201Z,-1.00
2018-02-13T05:41:17.666Z,-1.00
2018-02-13T05:43:45.265Z,-0.90
2018-02-13T05:46:12.771Z,-1.00
2018-02-13T05:48:40.260Z,-0.90
2018-02-13T05:51:08.495Z,-1.00
2018-02-13T05:53:35.985Z,-0.60
2018-02-13T05:56:03.461Z,-0.80
2018-02-13T05:58:31.710Z,-0.20
2018-02-13T06:00:59.216Z,-0.30
2018-02-13T06:03:26.714Z,0.00
2018-02-13T06:05:54.189Z,-0.20
2018-02-13T06:08:21.665Z,-0.10
2018-02-13T06:10:49.899Z,0.00
2018-02-13T06:13:17.387Z,-0.10
2018-02-13T06:15:45.636Z,0.10
2018-02-13T06:18:13.144Z,0.30
2018-02-13T06:20:40.622Z,0.10
2018-02-13T06:23:08.110Z,0.50
2018-02-13T06:25:35.580Z,0.50
2018-02-13T06:28:03.056Z,0.30
2018-02-13T06:30:31.302Z,0.70
2018-02-13T06:32:59.558Z,0.60
2018-02-13T06:35:27.035Z,0.30
2018-02-13T06:37:54.527Z,0.60
2018-02-13T06:40:22.766Z,0.80
2018-02-13T06:42:50.243Z,0.70
2018-02-13T06:45:17.725Z,0.90
2018-02-13T06:47:45.966Z,0.50
2018-02-13T06:50:13.434Z,0.50
2018-02-13T06:52:40.931Z,0.90
2018-02-13T06:55:08.411Z,0.90
2018-02-13T06:57:35.898Z,0.90
2018-02-13T07:00:03.376Z,0.80
2018-02-13T07:02:30.852Z,0.90
2018-02-13T07:04:59.139Z,0.90
2018-02-13T07:07:26.608Z,0.80
2018-02-13T07:09:54.089Z,0.90
2018-02-13T07:12:21.545Z,0.90
2018-02-13T07:14:49.033Z,0.90
2018-02-13T07:17:16.499Z,0.70
2018-02-13T07:19:45.192Z,0.90
2018-02-13T07:22:12.668Z,0.90
2018-02-13T07:24:40.907Z,0.90
2018-02-13T07:27:08.374Z,1.10
2018-02-13T07:29:35.852Z,0.90
2018-02-13T07:32:04.095Z,0.90
2018-02-13T07:34:31.580Z,1.20
2018-02-13T07:36:59.044Z,0.80
2018-02-13T07:39:27.296Z,1.30
2018-02-13T07:41:55.291Z,1.10
2018-02-13T07:44:23.539Z,1.20
2018-02-13T07:46:51.021Z,0.90
2018-02-13T07:49:18.492Z,1.20
2018-02-13T07:51:46.724Z,1.30
2018-02-13T07:54:14.210Z,1.10
2018-02-13T07:56:41.664Z,1.20
2018-02-13T07:59:09.142Z,1.20
2018-02-13T08:01:36.620Z,1.40
2018-02-13T08:04:04.091Z,1.20
2018-02-13T08:06:31.557Z,1.50
2018-02-13T08:08:59.027Z,1.50
2018-02-13T08:11:26.563Z,1.30
2018-02-13T08:13:54.759Z,1.30
2018-02-13T08:16:22.228Z,1.40
2018-02-13T08:18:49.698Z,1.50
2018-02-13T08:21:17.160Z,1.50
2018-02-13T08:23:44.634Z,1.40
2018-02-13T08:26:12.882Z,1.50
2018-02-13T08:28:40.359Z,1.70
2018-02-13T08:31:08.603Z,1.70
2018-02-13T08:33:36.143Z,1.70
2018-02-13T08:36:03.606Z,1.90
2018-02-13T08:38:31.108Z,1.80
2018-02-13T08:40:58.570Z,2.10
2018-02-13T08:43:26.824Z,2.20
2018-02-13T08:45:54.287Z,2.10
2018-02-13T08:48:21.845Z,2.50
2018-02-13T08:50:49.316Z,2.30
2018-02-13T08:53:20.543Z,2.10
2018-02-13T08:55:48.037Z,2.20
2018-02-13T08:58:16.278Z,2.40
2018-02-13T09:00:43.734Z,2.00
2018-02-13T09:03:11.198Z,2.40
2018-02-13T09:05:38.826Z,2.40
2018-02-13T09:08:06.307Z,2.40
2018-02-13T09:10:33.787Z,2.40
2018-02-13T09:13:01.259Z,2.50
2018-02-13T09:15:29.535Z,2.80
2018-02-13T09:17:56.986Z,2.70
2018-02-13T09:20:25.272Z,2.70
2018-02-13T09:22:52.703Z,2.80
2018-02-13T09:25:20.197Z,2.80
2018-02-13T09:27:48.422Z,3.30
2018-02-13T09:30:15.906Z,3.00
2018-02-13T09:32:43.378Z,3.20
2018-02-13T09:35:11.672Z,3.10
2018-02-13T09:37:39.147Z,3.20
2018-02-13T09:40:06.614Z,3.40
2018-02-13T09:42:34.087Z,3.40
2018-02-13T09:45:01.583Z,3.20
2018-02-13T09:47:29.816Z,3.30
2018-02-13T09:49:57.306Z,3.50
2018-02-13T09:52:24.780Z,3.50
2018-02-13T09:54:53.014Z,3.50
2018-02-13T09:57:21.253Z,3.70
2018-02-13T09:59:48.723Z,3.70
2018-02-13T10:02:16.197Z,3.50
2018-02-13T10:04:43.662Z,3.90
2018-02-13T10:07:11.982Z,3.90
2018-02-13T10:09:39.443Z,3.70
2018-02-13T10:12:07.690Z,4.00
2018-02-13T10:14:35.174Z,3.90
2018-02-13T10:17:03.403Z,4.00
2018-02-13T10:19:37.048Z,4.00
2018-02-13T10:22:04.510Z,4.00
2018-02-13T10:24:32.766Z,4.40
2018-02-13T10:27:00.222Z,4.50
2018-02-13T10:29:27.707Z,4.10
2018-02-13T10:31:55.991Z,4.30
2018-02-13T10:34:23.423Z,4.50
2018-02-13T10:36:50.898Z,4.60
2018-02-13T10:39:18.371Z,4.60
2018-02-13T10:41:46.603Z,4.60
2018-02-13T10:44:14.107Z,4.60
2018-02-13T10:46:41.580Z,4.60
2018-02-13T10:49:09.059Z,4.70
2018-02-13T10:51:36.526Z,4.60
2018-02-13T10:54:03.999Z,4.80
2018-02-13T10:56:31.484Z,4.90
2018-02-13T10:58:59.729Z,4.90
2018-02-13T11:01:32.950Z,5.30
2018-02-13T11:04:02.007Z,5.00
2018-02-13T11:06:29.493Z,5.20
2018-02-13T11:08:56.956Z,5.20
2018-02-13T11:11:24.427Z,5.40
2018-02-13T11:13:52.682Z,5.40
2018-02-13T11:16:20.159Z,5.70
2018-02-13T11:18:48.399Z,5.40
2018-02-13T11:21:15.866Z,5.80
2018-02-13T11:23:43.335Z,5.70
2018-02-13T11:26:10.890Z,5.30
2018-02-13T11:28:38.363Z,5.30
2018-02-13T11:31:06.602Z,5.80
2018-02-13T11:33:34.086Z,5.60
2018-02-13T11:36:01.571Z,5.60
2018-02-13T11:38:29.814Z,5.60
2018-02-13T11:40:57.278Z,5.50
2018-02-13T11:43:24.740Z,5.70
2018-02-13T11:45:52.230Z,5.90
2018-02-13T11:48:19.687Z,5.80
2018-02-13T11:50:47.172Z,5.80
2018-02-13T11:53:14.630Z,5.70
2018-02-13T11:55:42.111Z,5.70
2018-02-13T11:58:09.567Z,5.80
2018-02-13T12:00:37.044Z,5.80
2018-02-13T12:03:04.514Z,5.80
2018-02-13T12:05:32.758Z,5.80
2018-02-13T12:08:00.239Z,5.80
2018-02-13T12:10:27.714Z,5.90
2018-02-13T12:12:55.954Z,5.30
2018-02-13T12:15:23.416Z,5.30
2018-02-13T12:17:50.941Z,5.40
2018-02-13T12:20:18.378Z,5.50
2018-02-13T12:22:45.853Z,5.50
2018-02-13T12:25:13.334Z,5.50
2018-02-13T12:27:40.839Z,5.70
2018-02-13T12:30:08.323Z,5.60
2018-02-13T12:32:35.834Z,5.50
2018-02-13T12:35:03.322Z,5.60
2018-02-13T12:37:30.798Z,5.70
2018-02-13T12:39:58.277Z,5.70
2018-02-13T12:42:25.734Z,5.60
2018-02-13T12:44:53.206Z,5.70
2018-02-13T12:47:20.688Z,5.70
2018-02-13T12:49:48.196Z,5.70
2018-02-13T12:52:15.661Z,5.70
2018-02-13T12:54:43.186Z,5.80
2018-02-13T12:57:11.415Z,6.10
2018-02-13T12:59:38.895Z,6.10
2018-02-13T13:02:06.383Z,6.00
2018-02-13T13:04:34.611Z,6.00
2018-02-13T13:07:02.091Z,5.90
2018-02-13T13:09:29.558Z,5.90
2018-02-13T13:11:57.802Z,5.80
2018-02-13T13:14:25.272Z,5.70
2018-02-13T13:16:52.754Z,5.70
2018-02-13T13:19:20.991Z,6.00
2018-02-13T13:21:48.480Z,6.00
2018-02-13T13:24:15.953Z,6.00
2018-02-13T13:26:44.216Z,6.10
2018-02-13T13:29:11.677Z,6.40
2018-02-13T13:31:39.159Z,6.00
2018-02-13T13:34:07.387Z,5.90
2018-02-13T13:36:34.895Z,6.10
2018-02-13T13:39:02.363Z,5.70
2018-02-13T13:41:29.934Z,5.70
2018-02-13T13:43:58.549Z,5.70
2018-02-13T13:46:26.032Z,5.70
2018-02-13T13:48:53.507Z,5.70
2018-02-13T13:51:21.742Z,5.50
2018-02-13T13:53:49.210Z,5.50
2018-02-13T13:56:16.686Z,5.60
2018-02-13T13:58:45.003Z,5.60
2018-02-13T14:01:12.434Z,5.80
2018-02-13T14:03:40.671Z,5.70
2018-02-13T14:06:08.972Z,6.00
2018-02-13T14:08:36.439Z,5.70
2018-02-13T14:11:04.692Z,5.50
2018-02-13T14:13:32.165Z,5.50
2018-02-13T14:16:00.422Z,5.50
2018-02-13T14:18:27.908Z,5.40
2018-02-13T14:20:56.147Z,5.40
2018-02-13T14:23:23.606Z,5.30
2018-02-13T14:25:51.115Z,5.40
2018-02-13T14:28:18.556Z,5.40
2018-02-13T14:30:46.801Z,5.40
2018-02-13T14:33:14.279Z,5.50
2018-02-13T14:35:41.780Z,5.30
2018-02-13T14:38:09.248Z,5.20
2018-02-13T14:40:36.739Z,5.20
2018-02-13T14:43:04.209Z,5.50
2018-02-13T14:45:31.680Z,5.50
2018-02-13T14:47:59.175Z,5.20
2018-02-13T14:50:26.650Z,4.90
2018-02-13T14:52:54.114Z,5.10
2018-02-13T14:55:21.624Z,5.20
2018-02-13T14:57:49.867Z,5.10
2018-02-13T15:00:17.332Z,5.00
2018-02-13T15:02:44.812Z,5.10
2018-02-13T15:05:13.057Z,5.20
2018-02-13T15:07:40.522Z,5.10
2018-02-13T15:10:07.988Z,5.00
2018-02-13T15:12:39.366Z,4.90
2018-02-13T15:15:12.257Z,4.90
2018-02-13T15:17:47.803Z,4.80
2018-02-13T15:20:15.275Z,4.90
2018-02-13T15:22:42.764Z,4.80
2018-02-13T15:25:10.224Z,4.90
2018-02-13T15:27:38.467Z,4.70
2018-02-13T15:30:05.931Z,4.70
2018-02-13T15:32:33.412Z,4.60
2018-02-13T15:35:00.875Z,4.70
2018-02-13T15:37:28.352Z,4.70
2018-02-13T15:39:55.828Z,4.60
2018-02-13T15:42:24.063Z,4.60
2018-02-13T15:44:51.531Z,4.90
2018-02-13T15:47:18.998Z,4.60
2018-02-13T15:49:48.307Z,4.50
2018-02-13T15:52:15.778Z,4.60
2018-02-13T15:54:44.011Z,4.50
2018-02-13T15:57:11.487Z,4.80
2018-02-13T15:59:38.963Z,4.70
2018-02-13T16:02:06.439Z,4.40
2018-02-13T16:04:34.663Z,4.30
2018-02-13T16:07:02.173Z,4.40
2018-02-13T16:09:30.405Z,4.30
2018-02-13T16:11:57.882Z,4.50
2018-02-13T16:14:25.409Z,4.40
2018-02-13T16:16:52.871Z,4.10
2018-02-13T16:19:20.336Z,4.10
2018-02-13T16:21:47.815Z,4.20
2018-02-13T16:24:15.292Z,4.30
2018-02-13T16:26:43.542Z,4.30
2018-02-13T16:29:11.010Z,4.20
2018-02-13T16:31:38.487Z,4.30
2018-02-13T16:34:06.872Z,4.40
2018-02-13T16:36:35.071Z,4.10
2018-02-13T16:39:02.559Z,4.10
2018-02-13T16:41:30.042Z,4.30
2018-02-13T16:43:57.506Z,3.80
2018-02-13T16:46:25.754Z,3.50
2018-02-13T16:48:53.231Z,3.60
2018-02-13T16:51:20.694Z,3.40
2018-02-13T16:53:48.183Z,3.40
2018-02-13T16:56:16.411Z,3.60
2018-02-13T16:58:43.902Z,3.20
2018-02-13T17:01:12.135Z,3.10
2018-02-13T17:03:39.653Z,3.40
2018-02-13T17:06:07.172Z,3.10
2018-02-13T17:08:34.629Z,3.20
2018-02-13T17:11:02.099Z,3.00
2018-02-13T17:13:30.357Z,2.90
2018-02-13T17:15:57.825Z,3.00
2018-02-13T17:18:25.326Z,2.80
2018-02-13T17:20:52.808Z,2.80
2018-02-13T17:23:20.290Z,2.50
2018-02-13T17:25:47.798Z,2.60
2018-02-13T17:28:15.285Z,2.60
2018-02-13T17:30:42.793Z,2.50
2018-02-13T17:33:11.039Z,2.60
2018-02-13T17:35:38.527Z,2.60
2018-02-13T17:38:06.782Z,2.40
2018-02-13T17:40:37.656Z,2.30
2018-02-13T17:43:05.887Z,2.30
2018-02-13T17:45:33.363Z,2.40
2018-02-13T17:48:00.834Z,2.40
2018-02-13T17:50:29.074Z,2.00
2018-02-13T17:52:56.586Z,1.60
2018-02-13T17:55:24.824Z,1.80
2018-02-13T17:57:52.292Z,2.10
2018-02-13T18:00:20.543Z,2.10
2018-02-13T18:02:48.016Z,1.80
2018-02-13T18:05:15.481Z,1.60
2018-02-13T18:07:42.957Z,1.70
2018-02-13T18:10:11.959Z,1.50
2018-02-13T18:12:39.387Z,1.50
2018-02-13T18:15:06.854Z,1.30
2018-02-13T18:17:34.326Z,1.30
2018-02-13T18:20:02.573Z,1.10
2018-02-13T18:22:30.051Z,1.30
2018-02-13T18:24:57.519Z,1.20
2018-02-13T18:27:25.427Z,1.30
2018-02-13T18:29:52.903Z,1.40
2018-02-13T18:32:20.407Z,1.30
2018-02-13T18:34:48.635Z,0.90
2018-02-13T18:37:16.130Z,0.90
2018-02-13T18:39:44.378Z,1.10
2018-02-13T18:42:12.675Z,0.80
2018-02-13T18:44:41.609Z,0.90
2018-02-13T18:47:09.085Z,0.80
2018-02-13T18:49:36.550Z,0.60
2018-02-13T18:52:04.023Z,0.70
2018-02-13T18:54:32.284Z,0.70
2018-02-13T18:56:59.761Z,0.70
2018-02-13T18:59:28.434Z,0.70
2018-02-13T19:01:55.902Z,0.70
2018-02-13T19:04:23.395Z,0.30
2018-02-13T19:06:53.413Z,0.60
2018-02-13T19:09:21.646Z,0.50
2018-02-13T19:11:49.136Z,0.40
2018-02-13T19:14:16.601Z,0.40
2018-02-13T19:19:12.311Z,0.30
2018-02-13T19:21:39.784Z,0.50
2018-02-13T19:24:08.039Z,0.10
2018-02-13T19:26:35.512Z,0.40
2018-02-13T19:29:02.991Z,0.10
2018-02-13T19:31:31.219Z,0.40
2018-02-13T19:33:58.702Z,0.30
2018-02-13T19:36:26.214Z,0.10
2018-02-13T19:38:53.678Z,-0.10
2018-02-13T19:41:21.996Z,-0.10
2018-02-13T19:43:49.478Z,-0.10
2018-02-13T19:46:16.960Z,-0.60
2018-02-13T19:48:44.450Z,-0.10
2018-02-13T19:51:11.924Z,-0.40
2018-02-13T19:53:39.420Z,-0.20
2018-02-13T19:56:06.903Z,-0.30
2018-02-13T19:58:34.397Z,-0.60
2018-02-13T20:01:01.885Z,-0.40
2018-02-13T20:03:30.134Z,-0.30
2018-02-13T20:05:57.619Z,-0.50
2018-02-13T20:08:25.896Z,-0.40
2018-02-13T20:10:54.130Z,-0.50
2018-02-13T20:13:21.621Z,-0.50
2018-02-13T20:15:49.866Z,-0.40
2018-02-13T20:18:17.351Z,-0.30
2018-02-13T20:20:45.618Z,-0.80
2018-02-13T20:23:13.128Z,-0.70
2018-02-13T20:25:40.614Z,-0.90
2018-02-13T20:28:08.099Z,-0.70
2018-02-13T20:30:36.351Z,-0.80
2018-02-13T20:33:03.844Z,-0.80
2018-02-13T20:35:32.927Z,-1.00
2018-02-13T20:38:01.190Z,-1.00
2018-02-13T20:40:28.667Z,-1.20
2018-02-13T20:42:56.918Z,-0.80
2018-02-13T20:45:24.420Z,-0.90
2018-02-13T20:47:52.676Z,-0.90
2018-02-13T20:50:20.923Z,-0.90
2018-02-13T20:52:48.411Z,-1.10
2018-02-13T20:55:16.660Z,-0.80
2018-02-13T20:57:44.179Z,-0.80
2018-02-13T21:00:11.678Z,-1.00
2018-02-13T21:02:39.166Z,-1.10
2018-02-13T21:05:07.420Z,-1.00
2018-02-13T21:07:34.907Z,-1.20
2018-02-13T21:10:03.162Z,-1.00
2018-02-13T21:12:30.652Z,-1.00
2018-02-13T21:14:58.151Z,-1.20
2018-02-13T21:17:25.636Z,-0.90
2018-02-13T21:19:53.169Z,-1.00
2018-02-13T21:22:20.674Z,-1.10
2018-02-13T21:24:48.925Z,-1.20
2018-02-13T21:27:16.402Z,-1.20
2018-02-13T21:29:44.654Z,-1.40
2018-02-13T21:32:12.144Z,-1.50
2018-02-13T21:34:39.632Z,-1.40
2018-02-13T21:37:07.106Z,-1.10
2018-02-13T21:39:35.364Z,-1.20
2018-02-13T21:42:02.848Z,-1.20
2018-02-13T21:44:30.335Z,-1.30
2018-02-13T21:46:57.811Z,-1.50
2018-02-13T21:49:26.093Z,-1.30
2018-02-13T21:51:54.327Z,-1.30
2018-02-13T21:54:21.821Z,-1.40
2018-02-13T21:56:50.064Z,-1.20
2018-02-13T21:59:17.551Z,-1.10
2018-02-13T22:01:45.810Z,-1.20
2018-02-13T22:04:13.308Z,-1.30
2018-02-13T22:06:40.787Z,-1.40
2018-02-13T22:09:08.275Z,-1.50
2018-02-13T22:11:35.767Z,-1.50
2018-02-13T22:14:04.011Z,-1.50
2018-02-13T22:16:31.490Z,-1.50
2018-02-13T22:18:58.979Z,-1.60
2018-02-13T22:21:26.462Z,-1.90
2018-02-13T22:23:53.963Z,-1.50
2018-02-13T22:26:21.455Z,-1.80
2018-02-13T22:28:48.939Z,-1.70
2018-02-13T22:31:16.424Z,-1.60
2018-02-13T22:33:43.903Z,-1.80
2018-02-13T22:36:12.152Z,-1.90
2018-02-13T22:38:39.626Z,-1.70
2018-02-13T22:41:07.119Z,-2.00
2018-02-13T22:43:34.594Z,-1.90
2018-02-13T22:46:02.087Z,-1.60
2018-02-13T22:48:29.575Z,-1.60
2018-02-13T22:50:57.826Z,-1.50
2018-02-13T22:53:25.318Z,-1.80
2018-02-13T22:55:52.790Z,-1.90
2018-02-13T22:58:20.278Z,-1.60
2018-02-13T23:00:48.519Z,-1.70
2018-02-13T23:03:16.003Z,-2.00
2018-02-13T23:05:43.474Z,-1.70
2018-02-13T23:08:10.952Z,-1.70
2018-02-13T23:10:38.441Z,-1.60
2018-02-13T23:13:06.694Z,-1.70
2018-02-13T23:15:34.172Z,-1.90
2018-02-13T23:18:02.447Z,-2.00
2018-02-13T23:20:30.696Z,-1.80
2018-02-13T23:22:58.173Z,-2.20
2018-02-13T23:25:26.420Z,-2.10
2018-02-13T23:27:53.900Z,-1.90
2018-02-13T23:30:21.386Z,-2.10
2018-02-13T23:32:48.891Z,-1.80
2018-02-13T23:35:16.389Z,-1.70
2018-02-13T23:37:44.627Z,-2.10
2018-02-13T23:40:12.118Z,-1.70
2018-02-13T23:42:40.356Z,-2.20
2018-02-13T23:45:07.846Z,-2.40
2018-02-13T23:47:36.095Z,-2.50
2018-02-13T23:50:03.579Z,-2.50
2018-02-13T23:52:31.052Z,-2.40
2018-02-13T23:54:59.307Z,-1.90
2018-02-13T23:57:26.786Z,-2.10
2018-02-13T23:59:55.045Z,-2.30
